createdAt,value
2018-09-11T00:01:15.012Z,7.77
2018-09-11T00:03:43.831Z,8.03
2018-09-11T00:06:12.706Z,7.60
2018-09-11T00:08:41.542Z,8.23
2018-09-11T00:11:10.454Z,8.00
2018-09-11T00:13:41.764Z,8.13
2018-09-11T00:16:10.604Z,7.50
2018-09-11T00:18:39.515Z,8.13
2018-09-11T00:21:08.374Z,7.97
2018-09-11T00:23:37.199Z,7.63
2018-09-11T00:26:06.026Z,7.57
2018-09-11T00:28:34.929Z,7.50
2018-09-11T00:31:03.784Z,8.23
2018-09-11T00:33:33.486Z,8.00
2018-09-11T00:36:02.341Z,7.57
2018-09-11T00:38:31.162Z,8.00
2018-09-11T00:40:59.995Z,8.10
2018-09-11T00:43:28.879Z,7.67
2018-09-11T00:45:57.709Z,8.27
2018-09-11T00:48:26.543Z,7.83
2018-09-11T00:50:55.397Z,8.57
2018-09-11T00:53:24.273Z,7.57
2018-09-11T00:55:53.090Z,8.47
2018-09-11T00:58:21.959Z,8.40
2018-09-11T01:00:50.761Z,8.30
2018-09-11T01:03:19.566Z,7.87
2018-09-11T01:05:48.418Z,7.70
2018-09-11T01:08:17.221Z,7.67
2018-09-11T01:10:46.154Z,7.73
2018-09-11T01:13:15.009Z,7.33
2018-09-11T01:15:43.858Z,8.40
2018-09-11T01:18:12.706Z,7.80
2018-09-11T01:20:41.565Z,8.67
2018-09-11T01:23:10.394Z,9.00
2018-09-11T01:25:39.256Z,8.13
2018-09-11T01:28:08.073Z,8.40
2018-09-11T01:30:36.992Z,8.50
2018-09-11T01:33:05.814Z,8.37
2018-09-11T01:35:34.635Z,8.20
2018-09-11T01:38:03.491Z,8.90
2018-09-11T01:40:32.363Z,8.67
2018-09-11T01:43:01.165Z,8.23
2018-09-11T01:45:29.966Z,8.73
2018-09-11T01:47:58.895Z,7.50
2018-09-11T01:50:27.695Z,7.97
2018-09-11T01:52:56.522Z,8.37
2018-09-11T01:55:25.473Z,8.40
2018-09-11T01:57:54.297Z,9.23
2018-09-11T02:00:23.074Z,9.27
2018-09-11T02:02:51.932Z,8.67
2018-09-11T02:05:20.715Z,8.30
2018-09-11T02:07:49.509Z,8.83
2018-09-11T02:10:18.348Z,8.83
2018-09-11T02:12:47.121Z,9.30
2018-09-11T02:15:15.963Z,9.13
2018-09-11T02:17:44.931Z,9.40
2018-09-11T02:20:13.872Z,9.07
2018-09-11T02:22:42.668Z,8.80
2018-09-11T02:25:11.563Z,8.60
2018-09-11T02:27:40.383Z,8.33
2018-09-11T02:30:09.220Z,9.47
2018-09-11T02:32:38.047Z,8.87
2018-09-11T02:35:06.988Z,9.50
2018-09-11T02:37:35.834Z,9.00
2018-09-11T02:40:04.744Z,9.20
2018-09-11T02:42:33.572Z,8.90
2018-09-11T02:45:02.402Z,8.93
2018-09-11T02:47:31.282Z,9.70
2018-09-11T02:50:00.090Z,8.60
2018-09-11T02:52:29.018Z,9.53
2018-09-11T02:54:57.910Z,9.47
2018-09-11T02:57:26.761Z,11.93
2018-09-11T02:59:55.639Z,14.50
2018-09-11T03:02:24.449Z,16.50
2018-09-11T03:04:53.313Z,18.10
2018-09-11T03:07:22.281Z,15.37
2018-09-11T03:09:51.098Z,11.63
2018-09-11T03:12:19.936Z,11.40
2018-09-11T03:14:48.817Z,9.87
2018-09-11T03:17:17.623Z,12.17
2018-09-11T03:19:46.433Z,9.77
2018-09-11T03:22:15.311Z,15.83
2018-09-11T03:24:44.186Z,19.83
2018-09-11T03:27:13.006Z,19.67
2018-09-11T03:29:41.819Z,19.27
2018-09-11T03:32:10.894Z,20.47
2018-09-11T03:34:39.888Z,21.57
2018-09-11T03:37:08.746Z,24.37
2018-09-11T03:39:37.666Z,23.47
2018-09-11T03:42:06.567Z,21.10
2018-09-11T03:44:35.485Z,25.37
2018-09-11T03:47:04.366Z,29.10
2018-09-11T03:49:33.178Z,31.23
2018-09-11T03:52:01.982Z,23.23
2018-09-11T03:54:30.858Z,24.13
2018-09-11T03:56:59.703Z,25.37
2018-09-11T03:59:28.517Z,25.57
2018-09-11T04:01:57.344Z,31.00
2018-09-11T04:04:26.249Z,31.87
2018-09-11T04:06:55.088Z,35.07
2018-09-11T04:09:23.940Z,26.07
2018-09-11T04:11:53.999Z,13.47
2018-09-11T04:14:22.871Z,14.50
2018-09-11T04:16:51.733Z,13.30
2018-09-11T04:19:20.610Z,15.63
2018-09-11T04:21:49.479Z,18.77
2018-09-11T04:24:18.307Z,21.77
2018-09-11T04:26:47.296Z,16.90
2018-09-11T04:29:16.876Z,11.87
2018-09-11T04:31:45.716Z,10.50
2018-09-11T04:34:14.631Z,10.57
2018-09-11T04:36:43.446Z,9.90
2018-09-11T04:39:12.264Z,12.63
2018-09-11T04:41:41.119Z,15.80
2018-09-11T04:44:09.925Z,14.73
2018-09-11T04:46:39.358Z,16.27
2018-09-11T04:49:08.211Z,15.50
2018-09-11T04:51:37.022Z,20.10
2018-09-11T04:54:05.838Z,21.70
2018-09-11T04:56:34.664Z,22.23
2018-09-11T04:59:03.506Z,23.37
2018-09-11T05:01:32.383Z,24.93
2018-09-11T05:04:01.198Z,23.47
2018-09-11T05:06:30.008Z,25.30
2018-09-11T05:09:00.423Z,11.70
2018-09-11T05:11:29.291Z,11.73
2018-09-11T05:13:58.102Z,10.80
2018-09-11T05:16:26.965Z,12.70
2018-09-11T05:18:55.807Z,13.13
2018-09-11T05:21:24.634Z,10.00
2018-09-11T05:23:53.497Z,11.57
2018-09-11T05:26:22.359Z,11.23
2018-09-11T05:28:51.309Z,11.20
2018-09-11T05:31:20.127Z,10.67
2018-09-11T05:33:48.962Z,18.63
2018-09-11T05:36:17.958Z,18.60
2018-09-11T05:38:46.951Z,17.00
2018-09-11T05:41:15.806Z,13.87
2018-09-11T05:43:44.769Z,10.73
2018-09-11T05:46:13.634Z,10.03
2018-09-11T05:48:42.510Z,10.80
2018-09-11T05:51:11.527Z,11.33
2018-09-11T05:53:40.395Z,10.80
2018-09-11T05:56:09.323Z,10.03
2018-09-11T05:58:38.240Z,11.90
2018-09-11T06:01:07.124Z,13.33
2018-09-11T06:03:36.036Z,12.43
2018-09-11T06:06:04.886Z,10.53
2018-09-11T06:08:33.802Z,9.60
2018-09-11T06:11:02.646Z,12.37
2018-09-11T06:13:31.470Z,10.00
2018-09-11T06:16:00.326Z,9.83
2018-09-11T06:18:30.389Z,9.33
2018-09-11T06:20:59.558Z,9.10
2018-09-11T06:23:28.439Z,9.47
2018-09-11T06:25:58.780Z,10.17
2018-09-11T06:28:27.632Z,10.30
2018-09-11T06:30:56.477Z,11.53
2018-09-11T06:33:26.806Z,12.17
2018-09-11T06:35:55.643Z,14.30
2018-09-11T06:38:25.114Z,16.97
2018-09-11T06:40:55.191Z,23.30
2018-09-11T06:43:24.096Z,13.03
2018-09-11T06:45:52.974Z,11.63
2018-09-11T06:48:21.862Z,11.83
2018-09-11T06:50:50.694Z,10.20
2018-09-11T06:53:19.521Z,9.97
2018-09-11T06:55:48.390Z,10.83
2018-09-11T06:58:17.202Z,13.53
2018-09-11T07:00:46.437Z,14.57
2018-09-11T07:03:15.306Z,15.20
2018-09-11T07:05:44.141Z,13.47
2018-09-11T07:08:12.984Z,11.23
2018-09-11T07:10:43.143Z,10.73
2018-09-11T07:13:11.962Z,9.70
2018-09-11T07:15:40.826Z,8.90
2018-09-11T07:18:09.729Z,9.63
2018-09-11T07:20:38.547Z,8.07
2018-09-11T07:23:07.417Z,9.27
2018-09-11T07:25:36.249Z,8.83
2018-09-11T07:28:05.196Z,9.23
2018-09-11T07:30:36.959Z,8.93
2018-09-11T07:33:05.858Z,8.27
2018-09-11T07:35:34.711Z,8.97
2018-09-11T07:38:03.881Z,8.43
2018-09-11T07:40:32.859Z,8.83
2018-09-11T07:43:01.695Z,8.60
2018-09-11T07:45:30.652Z,8.40
2018-09-11T07:47:59.555Z,9.23
2018-09-11T07:50:28.462Z,8.20
2018-09-11T07:52:58.696Z,7.73
2018-09-11T07:55:27.493Z,8.77
2018-09-11T07:57:56.386Z,7.77
2018-09-11T08:00:25.355Z,7.90
2018-09-11T08:02:54.224Z,8.53
2018-09-11T08:05:23.043Z,8.40
2018-09-11T08:07:53.203Z,8.07
2018-09-11T08:10:22.035Z,7.90
2018-09-11T08:12:50.886Z,7.00
2018-09-11T08:15:19.758Z,7.80
2018-09-11T08:17:50.218Z,7.30
2018-09-11T08:20:19.071Z,7.30
2018-09-11T08:22:47.999Z,8.93
2018-09-11T08:25:18.094Z,7.43
2018-09-11T08:27:46.969Z,8.30
2018-09-11T08:30:15.850Z,8.00
2018-09-11T08:32:44.936Z,7.87
2018-09-11T08:35:13.762Z,7.90
2018-09-11T08:37:42.751Z,8.27
2018-09-11T08:40:11.694Z,8.27
2018-09-11T08:42:40.583Z,7.33
2018-09-11T08:45:10.812Z,7.77
2018-09-11T08:47:41.358Z,8.33
2018-09-11T08:50:10.409Z,8.20
2018-09-11T08:52:39.479Z,7.50
2018-09-11T08:55:08.375Z,7.43
2018-09-11T08:57:37.360Z,7.60
2018-09-11T09:00:08.370Z,7.70
2018-09-11T09:02:37.356Z,7.90
2018-09-11T09:05:06.343Z,8.10
2018-09-11T09:07:35.333Z,7.83
2018-09-11T09:10:04.373Z,8.17
2018-09-11T09:12:33.190Z,7.40
2018-09-11T09:15:02.195Z,7.83
2018-09-11T09:17:31.086Z,7.80
2018-09-11T09:19:59.923Z,7.43
2018-09-11T09:22:28.852Z,7.70
2018-09-11T09:24:57.679Z,7.57
2018-09-11T09:27:26.555Z,8.40
2018-09-11T09:29:55.521Z,7.97
2018-09-11T09:32:24.370Z,7.93
2018-09-11T09:34:53.276Z,7.33
2018-09-11T09:37:22.213Z,7.63
2018-09-11T09:39:51.010Z,7.17
2018-09-11T09:42:19.897Z,7.47
2018-09-11T09:44:48.736Z,7.43
2018-09-11T09:47:17.764Z,7.73
2018-09-11T09:49:51.680Z,7.87
2018-09-11T09:52:21.858Z,7.70
2018-09-11T09:54:50.724Z,7.90
2018-09-11T09:57:19.553Z,7.40
2018-09-11T09:59:48.451Z,7.03
2018-09-11T10:02:25.079Z,6.73
2018-09-11T10:04:54.897Z,7.27
2018-09-11T10:07:24.366Z,6.83
2018-09-11T10:09:53.974Z,7.17
2018-09-11T10:12:22.870Z,8.20
2018-09-11T10:14:51.692Z,6.40
2018-09-11T10:17:20.522Z,6.80
2018-09-11T10:19:49.454Z,7.00
2018-09-11T10:22:18.362Z,7.87
2018-09-11T10:24:47.262Z,7.27
2018-09-11T10:27:16.224Z,8.40
2018-09-11T10:29:45.073Z,7.57
2018-09-11T10:32:13.949Z,7.63
2018-09-11T10:34:42.853Z,8.23
2018-09-11T10:37:11.698Z,8.03
2018-09-11T10:39:40.550Z,6.70
2018-09-11T10:42:09.444Z,7.27
2018-09-11T10:44:38.297Z,7.30
2018-09-11T10:47:07.206Z,7.60
2018-09-11T10:49:36.220Z,8.10
2018-09-11T10:52:05.166Z,7.83
2018-09-11T10:54:34.175Z,8.13
2018-09-11T10:57:03.359Z,7.97
2018-09-11T10:59:32.183Z,7.43
2018-09-11T11:02:01.063Z,7.73
2018-09-11T11:04:29.989Z,7.63
2018-09-11T11:06:58.883Z,8.10
2018-09-11T11:09:27.811Z,8.13
2018-09-11T11:11:56.729Z,7.23
2018-09-11T11:14:25.621Z,6.93
2018-09-11T11:16:55.286Z,6.40
2018-09-11T11:19:24.174Z,7.23
2018-09-11T11:21:53.057Z,8.03
2018-09-11T11:24:23.231Z,7.30
2018-09-11T11:26:52.151Z,7.33
2018-09-11T11:29:21.027Z,7.83
2018-09-11T11:31:51.313Z,7.13
2018-09-11T11:34:20.694Z,7.33
2018-09-11T11:36:49.776Z,7.30
2018-09-11T11:39:18.573Z,6.77
2018-09-11T11:41:47.466Z,7.87
2018-09-11T11:44:16.291Z,6.80
2018-09-11T11:46:46.431Z,7.20
2018-09-11T11:49:15.378Z,7.10
2018-09-11T11:51:44.198Z,7.60
2018-09-11T11:54:13.099Z,7.93
2018-09-11T11:56:42.292Z,8.90
2018-09-11T11:59:11.129Z,8.40
2018-09-11T12:01:41.701Z,7.87
2018-09-11T12:04:10.537Z,8.73
2018-09-11T12:06:39.411Z,8.58
2018-09-11T12:09:11.306Z,8.17
2018-09-11T12:11:40.489Z,8.13
2018-09-11T12:14:09.397Z,7.93
2018-09-11T12:16:39.557Z,8.07
2018-09-11T12:19:08.450Z,8.10
2018-09-11T12:21:37.318Z,8.07
2018-09-11T12:24:06.273Z,8.67
2018-09-11T12:26:35.226Z,8.50
2018-09-11T12:29:04.327Z,8.83
2018-09-11T12:31:33.234Z,8.80
2018-09-11T12:34:02.134Z,8.03
2018-09-11T12:36:31.001Z,8.50
2018-09-11T12:38:59.898Z,9.17
2018-09-11T12:41:30.334Z,8.10
2018-09-11T12:43:59.183Z,8.23
2018-09-11T12:46:28.394Z,8.43
2018-09-11T12:48:57.017Z,8.80
2018-09-11T12:51:25.949Z,8.63
2018-09-11T12:53:54.782Z,8.47
2018-09-11T12:56:23.759Z,8.07
2018-09-11T12:58:52.790Z,8.00
2018-09-11T13:01:21.656Z,14.47
2018-09-11T13:03:50.547Z,16.70
2018-09-11T13:06:19.602Z,14.03
2018-09-11T13:08:48.457Z,18.27
2018-09-11T13:11:18.505Z,14.90
2018-09-11T13:13:47.332Z,10.73
2018-09-11T13:16:16.169Z,8.13
2018-09-11T13:18:45.790Z,8.70
2018-09-11T13:21:14.668Z,8.10
2018-09-11T13:23:43.536Z,9.73
2018-09-11T13:26:12.479Z,10.13
2018-09-11T13:28:41.357Z,10.90
2018-09-11T13:31:10.364Z,10.43
2018-09-11T13:33:39.601Z,10.27
2018-09-11T13:36:08.576Z,10.10
2018-09-11T13:38:37.458Z,10.00
2018-09-11T13:41:06.381Z,9.90
2018-09-11T13:43:35.222Z,9.77
2018-09-11T13:46:04.102Z,9.57
2018-09-11T13:48:34.536Z,9.43
2018-09-11T13:51:03.427Z,10.77
2018-09-11T13:53:32.312Z,10.70
2018-09-11T13:56:01.223Z,11.30
2018-09-11T13:58:30.082Z,12.23
2018-09-11T14:00:58.991Z,12.30
2018-09-11T14:03:27.956Z,10.93
2018-09-11T14:05:57.338Z,10.93
2018-09-11T14:08:26.229Z,12.17
2018-09-11T14:10:55.213Z,10.63
2018-09-11T14:13:24.097Z,10.57
2018-09-11T14:15:53.046Z,9.50
2018-09-11T14:18:21.933Z,10.18
2018-09-11T14:20:50.822Z,10.00
2018-09-11T14:23:19.696Z,10.30
2018-09-11T14:25:48.582Z,10.00
2018-09-11T14:28:17.471Z,8.30
2018-09-11T14:30:47.628Z,10.40
2018-09-11T14:33:16.526Z,9.30
2018-09-11T14:35:45.397Z,9.47
2018-09-11T14:38:15.977Z,9.13
2018-09-11T14:40:44.841Z,10.00
2018-09-11T14:43:13.732Z,10.53
2018-09-11T14:45:42.633Z,10.13
2018-09-11T14:48:11.458Z,12.23
2018-09-11T14:50:40.422Z,11.00
2018-09-11T14:53:09.373Z,10.53
2018-09-11T14:55:38.239Z,9.73
2018-09-11T14:58:07.147Z,10.13
2018-09-11T15:00:36.118Z,10.00
2018-09-11T15:03:04.998Z,10.70
2018-09-11T15:05:33.918Z,10.27
2018-09-11T15:08:04.447Z,9.40
2018-09-11T15:10:33.261Z,9.33
2018-09-11T15:13:02.189Z,9.03
2018-09-11T15:15:31.132Z,10.20
2018-09-11T15:17:59.978Z,10.23
2018-09-11T15:20:28.882Z,9.57
2018-09-11T15:22:59.254Z,9.47
2018-09-11T15:25:28.159Z,8.63
2018-09-11T15:27:57.042Z,9.43
2018-09-11T15:30:25.925Z,9.90
2018-09-11T15:32:54.857Z,9.57
2018-09-11T15:35:23.734Z,10.00
2018-09-11T15:37:53.949Z,8.83
2018-09-11T15:40:22.892Z,11.27
2018-09-11T15:42:51.774Z,11.53
2018-09-11T15:45:22.005Z,9.63
2018-09-11T15:47:50.873Z,8.63
2018-09-11T15:50:19.780Z,9.03
2018-09-11T15:52:48.978Z,9.93
2018-09-11T15:55:17.879Z,9.07
2018-09-11T15:57:46.756Z,8.50
2018-09-11T16:00:17.979Z,9.00
2018-09-11T16:02:46.898Z,10.50
2018-09-11T16:05:15.953Z,10.07
2018-09-11T16:07:45.019Z,11.03
2018-09-11T16:10:13.885Z,12.73
2018-09-11T16:12:42.774Z,10.90
2018-09-11T16:15:13.147Z,16.60
2018-09-11T16:17:41.998Z,15.00
2018-09-11T16:20:12.441Z,11.27
2018-09-11T16:22:41.370Z,11.47
2018-09-11T16:25:10.250Z,11.80
2018-09-11T16:27:39.167Z,10.63
2018-09-11T16:30:09.448Z,10.60
2018-09-11T16:32:38.385Z,12.73
2018-09-11T16:35:07.266Z,11.20
2018-09-11T16:37:36.148Z,11.93
2018-09-11T16:40:05.174Z,11.63
2018-09-11T16:42:34.020Z,11.43
2018-09-11T16:45:02.982Z,11.33
2018-09-11T16:47:33.141Z,12.47
2018-09-11T16:50:02.197Z,11.90
2018-09-11T16:52:31.121Z,14.77
2018-09-11T16:55:01.385Z,9.63
2018-09-11T16:57:30.443Z,10.73
2018-09-11T16:59:59.337Z,10.37
2018-09-11T17:02:28.158Z,9.30
2018-09-11T17:04:57.105Z,9.03
2018-09-11T17:07:25.963Z,8.50
2018-09-11T17:09:54.916Z,9.13
2018-09-11T17:12:24.101Z,10.03
2018-09-11T17:14:53.115Z,9.17
2018-09-11T17:17:21.997Z,9.30
2018-09-11T17:19:50.926Z,9.13
2018-09-11T17:22:19.813Z,8.97
2018-09-11T17:24:48.670Z,10.07
2018-09-11T17:27:17.635Z,9.80
2018-09-11T17:29:46.556Z,10.17
2018-09-11T17:32:15.398Z,9.53
2018-09-11T17:34:44.237Z,9.87
2018-09-11T17:37:13.140Z,9.83
2018-09-11T17:39:42.014Z,9.47
2018-09-11T17:42:10.983Z,9.93
2018-09-11T17:44:39.895Z,10.20
2018-09-11T17:47:08.768Z,10.90
2018-09-11T17:49:37.627Z,11.03
2018-09-11T17:52:06.717Z,11.17
2018-09-11T17:54:35.573Z,11.97
2018-09-11T17:57:04.557Z,11.47
2018-09-11T17:59:33.386Z,11.80
2018-09-11T18:02:02.298Z,12.00
2018-09-11T18:04:31.213Z,12.00
2018-09-11T18:07:00.087Z,12.13
2018-09-11T18:09:29.048Z,12.80
2018-09-11T18:11:57.910Z,12.17
2018-09-11T18:14:26.768Z,12.53
2018-09-11T18:16:55.763Z,12.40
2018-09-11T18:19:24.652Z,12.83
2018-09-11T18:21:53.590Z,13.70
2018-09-11T18:24:22.561Z,13.83
2018-09-11T18:26:51.482Z,13.43
2018-09-11T18:29:21.759Z,12.93
2018-09-11T18:31:50.668Z,12.27
2018-09-11T18:34:19.562Z,13.10
2018-09-11T18:36:48.485Z,13.13
2018-09-11T18:39:17.388Z,13.23
2018-09-11T18:41:46.295Z,12.90
2018-09-11T18:44:15.335Z,14.10
2018-09-11T18:46:45.770Z,13.27
2018-09-11T18:49:14.617Z,14.78
2018-09-11T18:51:43.505Z,13.30
2018-09-11T18:54:14.839Z,13.80
2018-09-11T18:56:43.694Z,14.90
2018-09-11T18:59:12.607Z,13.57
2018-09-11T19:01:41.525Z,11.67
2018-09-11T19:04:10.373Z,12.17
2018-09-11T19:06:39.217Z,13.20
2018-09-11T19:09:11.230Z,13.17
2018-09-11T19:11:40.128Z,12.83
2018-09-11T19:14:09.876Z,13.23
2018-09-11T19:16:38.826Z,13.70
2018-09-11T19:19:08.047Z,13.67
2018-09-11T19:21:37.345Z,12.13
2018-09-11T19:24:07.462Z,13.27
2018-09-11T19:26:36.323Z,12.00
2018-09-11T19:29:05.415Z,13.33
2018-09-11T19:31:35.516Z,12.63
2018-09-11T19:34:04.442Z,12.27
2018-09-11T19:36:33.282Z,12.90
2018-09-11T19:39:03.621Z,11.43
2018-09-11T19:41:32.462Z,11.37
2018-09-11T19:44:01.380Z,11.13
2018-09-11T19:46:31.576Z,11.13
2018-09-11T19:49:00.699Z,12.03
2018-09-11T19:51:29.549Z,10.33
2018-09-11T19:53:58.765Z,12.10
2018-09-11T19:56:27.604Z,10.93
2018-09-11T19:58:56.481Z,11.07
2018-09-11T20:01:25.364Z,11.23
2018-09-11T20:03:54.224Z,10.57
2018-09-11T20:06:23.099Z,10.60
2018-09-11T20:08:51.993Z,10.70
2018-09-11T20:14:02.574Z,10.07
2018-09-11T20:16:31.470Z,10.10
2018-09-11T20:19:00.367Z,9.43
2018-09-11T20:21:29.441Z,10.37
2018-09-11T20:23:58.605Z,10.53
2018-09-11T20:26:27.495Z,11.33
2018-09-11T20:28:57.879Z,10.60
2018-09-11T20:31:26.854Z,10.57
2018-09-11T20:33:56.179Z,10.03
2018-09-11T20:36:25.058Z,9.90
2018-09-11T20:38:53.944Z,10.00
2018-09-11T20:41:22.815Z,9.67
2018-09-11T20:43:51.754Z,10.40
2018-09-11T20:46:20.642Z,10.63
2018-09-11T20:48:49.486Z,9.77
2018-09-11T20:51:18.380Z,9.93
2018-09-11T20:53:47.223Z,11.50
2018-09-11T20:56:16.094Z,10.03
2018-09-11T20:58:45.015Z,10.03
2018-09-11T21:01:17.418Z,10.70
2018-09-11T21:03:46.356Z,11.05
2018-09-11T21:06:16.161Z,11.30
2018-09-11T21:08:52.335Z,10.43
2018-09-11T21:11:21.190Z,11.17
2018-09-11T21:13:50.140Z,11.30
2018-09-11T21:16:19.103Z,11.40
2018-09-11T21:18:47.991Z,11.40
2018-09-11T21:21:16.889Z,11.80
2018-09-11T21:23:45.762Z,12.00
2018-09-11T21:26:14.622Z,12.23
2018-09-11T21:28:43.528Z,13.67
2018-09-11T21:31:12.346Z,11.73
2018-09-11T21:33:41.186Z,10.97
2018-09-11T21:36:10.054Z,12.88
2018-09-11T21:38:39.523Z,12.30
2018-09-11T21:41:08.352Z,11.00
2018-09-11T21:43:37.315Z,11.13
2018-09-11T21:46:06.173Z,10.17
2018-09-11T21:48:34.990Z,10.90
2018-09-11T21:51:03.869Z,10.90
2018-09-11T21:53:32.728Z,11.20
2018-09-11T21:56:01.628Z,10.97
2018-09-11T21:58:30.473Z,11.00
2018-09-11T22:01:02.956Z,9.77
2018-09-11T22:03:31.798Z,10.73
2018-09-11T22:06:00.627Z,11.30
2018-09-11T22:08:29.463Z,10.40
2018-09-11T22:10:58.332Z,10.47
2018-09-11T22:13:27.244Z,10.50
2018-09-11T22:15:56.138Z,10.50
2018-09-11T22:18:24.961Z,9.90
2018-09-11T22:20:53.826Z,10.23
2018-09-11T22:23:22.718Z,9.63
2018-09-11T22:25:51.547Z,10.87
2018-09-11T22:28:20.379Z,10.80
2018-09-11T22:30:49.231Z,10.53
2018-09-11T22:33:18.078Z,10.90
2018-09-11T22:35:46.928Z,10.87
2018-09-11T22:38:16.359Z,10.67
2018-09-11T22:40:45.574Z,10.60
2018-09-11T22:43:14.474Z,11.00
2018-09-11T22:45:43.396Z,11.37
2018-09-11T22:48:12.206Z,10.80
2018-09-11T22:50:41.135Z,11.13
2018-09-11T22:53:09.985Z,11.00
2018-09-11T22:55:38.801Z,11.77
2018-09-11T22:58:09.090Z,11.40
2018-09-11T23:00:38.015Z,11.30
2018-09-11T23:03:06.919Z,11.60
2018-09-11T23:05:35.815Z,12.17
2018-09-11T23:08:04.639Z,11.73
2018-09-11T23:10:33.441Z,11.47
2018-09-11T23:13:02.283Z,11.30
2018-09-11T23:15:31.105Z,11.30
2018-09-11T23:17:59.925Z,11.00
2018-09-11T23:20:28.799Z,11.37
2018-09-11T23:22:59.123Z,12.00
2018-09-11T23:25:27.986Z,10.37
2018-09-11T23:27:56.809Z,10.60
2018-09-11T23:30:25.657Z,11.37
2018-09-11T23:32:54.561Z,10.37
2018-09-11T23:35:23.424Z,10.73
2018-09-11T23:37:52.370Z,11.37
2018-09-11T23:40:21.178Z,10.57
2018-09-11T23:42:50.018Z,11.03
2018-09-11T23:45:18.914Z,10.30
2018-09-11T23:47:47.735Z,10.77
2018-09-11T23:50:16.771Z,11.10
2018-09-11T23:52:45.804Z,11.03
2018-09-11T23:55:14.628Z,11.50
2018-09-11T23:57:43.437Z,11.27
